Terminal Aerodrome Forecast
Issued by NWS

Home | Current Version | Previous Version | Text Only | Print | Product List | Glossary On
Versions: 1 2 3 4 5 6 7 8 9 10 11 12 13 14 15 16 17 18 19 20 21 22 23 24
000
FTUS45 KGJT 191128
TAFASE
TAF
KASE 191128Z 1912/2012 20006KT P6SM FEW100
     FM191500 01003KT P6SM FEW200
     FM191900 35008KT P6SM SCT100
     FM192100 34008G16KT P6SM VCTS SCT100CB BKN150
     FM200200 20005KT P6SM FEW100 SCT150=

USA.gov is the U.S. government's official web portal to all federal, state and local government web resources and services.